Time;durP1;ratioP1;P1;durP2;ratioP2;P2;SDS_P1;SDS_P2;PMS_P1;PMS_P2;Temp;Humidity;BMP_temperature;BMP_pressure;BME280_temperature;BME280_humidity;BME280_pressure;Samples;Min_cycle;Max_cycle;Signal;HPM_P1;HPM_P2
2023/03/22 00:02:03;;;;;;;1.30;0.77;;;;;;;20.39;46.59;100936.69;5066758;27;96768;-75
2023/03/22 00:04:30;;;;;;;2.05;0.80;;;;;;;20.40;46.15;100932.06;5068301;27;97019;-75
2023/03/22 00:06:56;;;;;;;1.25;0.90;;;;;;;20.39;46.50;100931.22;5070863;27;96675;-75
2023/03/22 00:09:23;;;;;;;1.00;0.70;;;;;;;20.39;46.42;100931.22;5054439;27;96795;-75
2023/03/22 00:11:49;;;;;;;1.88;0.93;;;;;;;20.40;46.31;100927.47;5070708;27;97376;-75
2023/03/22 00:14:17;;;;;;;1.33;0.70;;;;;;;20.42;46.54;100924.56;5068788;27;97797;-75
2023/03/22 00:16:45;;;;;;;1.60;0.68;;;;;;;20.43;46.58;100927.13;5054233;27;96909;-75
2023/03/22 00:19:11;;;;;;;1.73;0.68;;;;;;;20.45;46.48;100924.22;5066507;27;96653;-75
2023/03/22 00:21:38;;;;;;;1.45;0.60;;;;;;;20.42;46.19;100921.84;5054708;27;96946;-75
2023/03/22 00:24:05;;;;;;;1.38;0.90;;;;;;;20.41;46.13;100918.25;5066971;27;97734;-75
2023/03/22 00:26:32;;;;;;;1.10;0.70;;;;;;;20.43;46.33;100918.09;5071713;27;97504;-75
2023/03/22 00:28:59;;;;;;;2.45;0.77;;;;;;;20.42;46.32;100911.78;5052414;27;96745;-75
2023/03/22 00:31:26;;;;;;;2.45;0.90;;;;;;;20.42;46.52;100906.31;5071604;27;97331;-75
2023/03/22 00:33:52;;;;;;;0.98;0.70;;;;;;;20.43;46.32;100909.91;5072884;27;97557;-75
2023/03/22 00:36:19;;;;;;;1.08;0.75;;;;;;;20.44;46.58;100900.69;5076189;27;96805;-75
2023/03/22 00:38:50;;;;;;;2.35;0.70;;;;;;;20.43;46.20;100905.31;5057327;27;96840;-75
2023/03/22 00:41:21;;;;;;;1.55;0.80;;;;;;;20.43;46.45;100894.38;5043161;27;96802;-75
2023/03/22 00:43:49;;;;;;;1.85;0.80;;;;;;;20.45;46.29;100891.50;5039602;27;99297;-75
2023/03/22 00:46:18;;;;;;;0.98;0.70;;;;;;;20.45;46.53;100891.50;5057089;27;98845;-75
2023/03/22 00:48:45;;;;;;;1.35;0.70;;;;;;;20.46;46.25;100883.13;5054218;27;96965;-75
2023/03/22 00:51:13;;;;;;;1.67;0.80;;;;;;;20.46;46.48;100887.75;5073498;27;97337;-75
2023/03/22 00:53:40;;;;;;;1.30;0.70;;;;;;;20.49;46.05;100866.41;5055017;27;99373;-75
2023/03/22 00:56:12;;;;;;;1.25;0.60;;;;;;;20.51;46.19;100868.97;5056403;27;99212;-75
2023/03/22 00:58:59;;;;;;;1.38;0.70;;;;;;;20.50;46.14;100862.66;5070621;27;96850;-75
2023/03/22 01:01:27;;;;;;;1.38;0.70;;;;;;;20.48;46.42;100866.59;5073600;27;97779;-75
2023/03/22 01:03:54;;;;;;;1.13;0.50;;;;;;;20.46;45.92;100855.84;5056412;27;99013;-75
2023/03/22 01:06:21;;;;;;;2.03;0.80;;;;;;;20.44;46.37;100857.91;5069255;27;97185;-75
2023/03/22 01:08:49;;;;;;;1.58;0.90;;;;;;;20.46;46.51;100857.72;5060966;27;97228;-75
2023/03/22 01:11:16;;;;;;;1.00;0.60;;;;;;;20.45;46.15;100862.34;5055930;27;96937;-75
2023/03/22 01:13:44;;;;;;;1.00;0.70;;;;;;;20.45;46.21;100850.56;5072511;27;96988;-75
2023/03/22 01:16:11;;;;;;;1.42;0.70;;;;;;;20.45;46.41;100840.50;5056461;27;99106;-75
2023/03/22 01:18:37;;;;;;;1.33;0.60;;;;;;;20.49;46.05;100841.03;5054789;27;97123;-75
2023/03/22 01:21:05;;;;;;;1.02;0.75;;;;;;;20.49;46.00;100838.28;5057089;27;96712;-75
2023/03/22 01:23:31;;;;;;;0.88;0.50;;;;;;;20.49;46.20;100838.28;5056739;27;98940;-75
2023/03/22 01:25:59;;;;;;;1.25;0.70;;;;;;;20.49;46.20;100838.28;5072203;27;97304;-75
2023/03/22 01:28:25;;;;;;;0.75;0.60;;;;;;;20.49;45.91;100832.84;5057200;27;96814;-75
2023/03/22 01:30:53;;;;;;;0.90;0.55;;;;;;;20.50;45.99;100829.94;5069121;27;97443;-75
2023/03/22 01:33:20;;;;;;;1.63;0.77;;;;;;;20.53;46.12;100824.13;5069931;27;96797;-75
2023/03/22 01:35:47;;;;;;;1.10;0.60;;;;;;;20.55;46.14;100821.22;5054042;27;98956;-75
2023/03/22 01:38:14;;;;;;;1.90;1.00;;;;;;;20.52;45.92;100805.19;5056920;27;96788;-75
2023/03/22 01:40:49;;;;;;;;;;;;;;;20.52;45.97;100805.19;5054979;27;96760;-75
2023/03/22 01:43:17;;;;;;;1.60;0.60;;;;;;;20.52;46.14;100795.13;5055497;27;99783;-75
2023/03/22 01:45:50;;;;;;;1.25;0.80;;;;;;;20.51;46.16;100787.13;5054815;27;99495;-76
2023/03/22 01:48:32;;;;;;;1.38;0.70;;;;;;;20.52;45.95;100781.50;5050968;27;96852;-75
2023/03/22 01:51:07;;;;;;;1.27;0.70;;;;;;;20.52;46.08;100772.47;5051728;27;96639;-75
2023/03/22 01:53:49;;;;;;;1.48;0.80;;;;;;;20.52;45.87;100769.72;5055673;27;98353;-75
2023/03/22 01:56:20;;;;;;;1.90;0.70;;;;;;;20.54;46.00;100759.50;5055479;27;97660;-75
2023/03/22 01:58:49;;;;;;;0.55;0.40;;;;;;;20.53;45.93;100760.53;5054708;27;97383;-75
2023/03/22 02:01:21;;;;;;;1.35;0.70;;;;;;;20.53;45.99;100758.66;5053369;27;96915;-75
2023/03/22 02:04:14;;;;;;;0.80;0.65;;;;;;;20.54;45.89;100749.44;5055500;27;100500;-75
2023/03/22 02:06:41;;;;;;;1.00;0.60;;;;;;;20.53;45.78;100747.72;5050636;27;99646;-75
2023/03/22 02:09:20;;;;;;;1.00;0.90;;;;;;;20.54;45.93;100743.97;5052180;27;96777;-75
2023/03/22 02:12:04;;;;;;;1.90;0.70;;;;;;;20.53;46.05;100738.69;5069685;27;97363;-75
2023/03/22 02:14:47;;;;;;;1.45;0.70;;;;;;;20.53;45.85;100730.50;5055503;27;96851;-75
2023/03/22 02:17:52;;;;;;;;;;;;;;;20.54;46.18;100726.75;5010742;28;97589;-75
2023/03/22 02:20:44;;;;;;;1.50;0.90;;;;;;;20.55;45.91;100723.00;5047018;27;96947;-75
2023/03/22 02:23:43;;;;;;;1.77;0.75;;;;;;;20.52;45.62;100721.47;5053670;27;96789;-75
2023/03/22 02:26:45;;;;;;;1.15;0.60;;;;;;;20.52;45.96;100723.34;5068969;27;96794;-75
2023/03/22 02:29:25;;;;;;;1.05;0.70;;;;;;;20.53;46.12;100714.16;5055578;27;100463;-75
2023/03/22 02:32:32;;;;;;;0.80;0.60;;;;;;;20.51;46.13;100717.03;5065746;27;97062;-75
2023/03/22 02:35:14;;;;;;;0.80;0.60;;;;;;;20.53;45.87;100711.41;5050907;27;97097;-75
2023/03/22 02:38:05;;;;;;;1.10;0.60;;;;;;;20.53;46.02;100717.72;5054421;27;99329;-75
2023/03/22 02:40:48;;;;;;;1.58;0.65;;;;;;;20.52;46.01;100707.84;5071729;27;96942;-75
2023/03/22 02:43:29;;;;;;;0.73;0.65;;;;;;;20.53;45.87;100719.59;5053004;27;96999;-75
2023/03/22 02:46:12;;;;;;;1.33;0.68;;;;;;;20.52;46.06;100704.25;5054865;27;97104;-75
2023/03/22 02:48:43;;;;;;;1.27;0.70;;;;;;;20.52;45.79;100707.84;5078571;27;96597;-75
2023/03/22 02:51:18;;;;;;;0.90;0.55;;;;;;;20.54;45.83;100699.47;5050939;27;98653;-75
2023/03/22 02:53:52;;;;;;;1.02;0.70;;;;;;;20.56;46.03;100702.88;5069604;27;97064;-75
2023/03/22 02:56:32;;;;;;;1.10;0.70;;;;;;;20.56;45.56;100702.88;5040316;27;96907;-75
2023/03/22 02:59:03;;;;;;;0.88;0.60;;;;;;;20.56;46.00;100701.00;5052422;27;98620;-75
2023/03/22 03:01:36;;;;;;;0.60;0.60;;;;;;;20.55;45.60;100706.63;5034756;27;99599;-75
2023/03/22 03:04:09;;;;;;;0.70;0.53;;;;;;;20.53;45.66;100697.78;5039061;27;96877;-75
2023/03/22 03:06:45;;;;;;;1.58;0.70;;;;;;;20.52;45.74;100696.94;5073703;27;96864;-76
2023/03/22 03:09:17;;;;;;;1.60;0.50;;;;;;;20.55;45.73;100693.84;5067348;27;97377;-75
2023/03/22 03:11:46;;;;;;;1.73;0.65;;;;;;;20.55;45.71;100693.84;5071370;27;96808;-75
2023/03/22 03:14:25;;;;;;;1.42;0.55;;;;;;;20.54;45.91;100689.41;5054282;27;96942;-75
2023/03/22 03:17:14;;;;;;;0.82;0.52;;;;;;;20.54;46.00;100681.22;5053088;27;97356;-75
2023/03/22 03:19:43;;;;;;;1.10;0.70;;;;;;;20.54;45.82;100678.50;5063927;27;99154;-75
2023/03/22 03:22:34;;;;;;;1.50;0.63;;;;;;;20.54;45.89;100675.78;5050510;27;96973;-75
2023/03/22 03:25:26;;;;;;;1.02;0.52;;;;;;;20.55;45.80;100674.75;5067385;27;97189;-75
2023/03/22 03:28:21;;;;;;;0.63;0.57;;;;;;;20.56;45.78;100686.50;5069512;27;97074;-75
2023/03/22 03:31:09;;;;;;;1.00;0.60;;;;;;;20.55;45.50;100677.47;5044776;27;98170;-75
2023/03/22 03:33:48;;;;;;;1.80;0.60;;;;;;;20.55;45.81;100682.06;5052247;27;98782;-75
2023/03/22 03:36:17;;;;;;;0.63;0.40;;;;;;;20.55;45.82;100679.34;5037871;27;97558;-75
2023/03/22 03:38:48;;;;;;;0.98;0.77;;;;;;;20.55;45.82;100684.81;5077380;27;96753;-75
2023/03/22 03:41:18;;;;;;;0.98;0.63;;;;;;;20.55;45.65;100674.75;5070390;27;96917;-75
2023/03/22 03:43:48;;;;;;;0.70;0.60;;;;;;;20.54;45.43;100670.31;5052499;27;97725;-75
2023/03/22 03:46:14;;;;;;;1.02;0.65;;;;;;;20.55;45.84;100674.75;5054459;27;96850;-75
2023/03/22 03:48:46;;;;;;;0.85;0.60;;;;;;;20.55;45.78;100673.88;5068676;27;96384;-76
2023/03/22 03:51:13;;;;;;;0.40;0.40;;;;;;;20.53;45.96;100665.03;5054188;27;100411;-75
2023/03/22 03:53:40;;;;;;;0.80;0.50;;;;;;;20.57;45.66;100671.84;5053995;27;99211;-75
2023/03/22 03:56:07;;;;;;;1.35;0.60;;;;;;;20.57;45.86;100672.69;5053526;27;96812;-75
2023/03/22 03:58:38;;;;;;;0.90;0.52;;;;;;;20.57;45.61;100675.41;5054715;27;97143;-75
2023/03/22 04:01:05;;;;;;;0.80;0.50;;;;;;;20.55;45.65;100666.56;5052357;27;100157;-75
2023/03/22 04:03:35;;;;;;;1.50;0.60;;;;;;;20.58;45.54;100671.66;5071919;27;97737;-75
2023/03/22 04:06:21;;;;;;;0.80;0.60;;;;;;;20.57;45.42;100678.13;5051828;27;97118;-75
2023/03/22 04:08:55;;;;;;;0.70;0.50;;;;;;;20.58;45.51;100684.44;5053899;27;97131;-75
2023/03/22 04:11:26;;;;;;;0.63;0.57;;;;;;;20.56;45.49;100673.72;5071980;27;98936;-75
2023/03/22 04:13:57;;;;;;;0.88;0.60;;;;;;;20.56;45.84;100681.03;5067178;27;99850;-75
2023/03/22 04:16:24;;;;;;;1.00;0.60;;;;;;;20.56;45.58;100681.91;5053255;27;96761;-75
2023/03/22 04:18:52;;;;;;;0.90;0.50;;;;;;;20.54;45.80;100678.50;5050661;27;97276;-75
2023/03/22 04:21:18;;;;;;;0.90;0.50;;;;;;;20.54;45.86;100677.66;5066530;27;96891;-75
2023/03/22 04:23:55;;;;;;;1.25;0.65;;;;;;;20.57;45.62;100671.84;5054132;27;97760;-75
2023/03/22 04:26:22;;;;;;;1.00;0.60;;;;;;;20.54;45.30;100661.28;5053407;27;96800;-75
2023/03/22 04:29:17;;;;;;;1.25;0.60;;;;;;;20.55;45.38;100660.25;5054086;27;97636;-75
2023/03/22 04:31:48;;;;;;;1.20;0.60;;;;;;;20.52;45.58;100664.19;5053449;27;96910;-75
2023/03/22 04:34:21;;;;;;;0.73;0.50;;;;;;;20.51;45.44;100656.19;5051537;27;99292;-75
2023/03/22 04:36:53;;;;;;;0.88;0.65;;;;;;;20.53;45.60;100643.22;5053642;27;96824;-75
2023/03/22 04:39:25;;;;;;;0.80;0.60;;;;;;;20.50;45.44;100649.88;5037789;27;97405;-75
2023/03/22 04:41:59;;;;;;;0.88;0.60;;;;;;;20.48;45.51;100646.47;5047984;27;99143;-75
2023/03/22 04:44:26;;;;;;;1.55;0.50;;;;;;;20.49;45.57;100642.72;5053832;27;97428;-75
2023/03/22 04:46:53;;;;;;;1.23;0.55;;;;;;;20.47;46.02;100649.38;5061448;27;96782;-75
2023/03/22 04:49:19;;;;;;;0.73;0.40;;;;;;;20.50;45.82;100654.47;5051854;27;97350;-75
2023/03/22 04:51:46;;;;;;;0.85;0.43;;;;;;;20.48;45.83;100646.47;5052277;27;100244;-76
2023/03/22 04:54:33;;;;;;;1.15;0.55;;;;;;;20.48;45.53;100641.00;5067476;27;96722;-75
2023/03/22 04:57:01;;;;;;;1.02;0.50;;;;;;;20.50;45.77;100638.97;5044059;27;96638;-75
2023/03/22 04:59:32;;;;;;;0.98;0.77;;;;;;;20.50;45.69;100636.22;5053196;27;96885;-75
2023/03/22 05:01:59;;;;;;;0.75;0.50;;;;;;;20.53;45.55;100632.28;5067993;27;97577;-74
2023/03/22 05:04:31;;;;;;;0.65;0.60;;;;;;;20.54;45.69;100639.44;5051810;27;98719;-75
2023/03/22 05:07:09;;;;;;;1.33;0.50;;;;;;;20.54;45.69;100626.66;5051068;27;97209;-75
2023/03/22 05:09:48;;;;;;;1.00;0.50;;;;;;;20.53;45.56;100630.41;5067512;27;97093;-75
2023/03/22 05:12:15;;;;;;;0.90;0.60;;;;;;;20.52;45.80;100633.31;5053234;27;100007;-75
2023/03/22 05:14:59;;;;;;;0.90;0.50;;;;;;;20.52;45.60;100639.63;5053833;27;99050;-75
2023/03/22 05:17:31;;;;;;;0.80;0.55;;;;;;;20.51;45.67;100639.81;5052178;27;97501;-75
2023/03/22 05:20:07;;;;;;;0.60;0.50;;;;;;;20.48;45.67;100638.28;5037449;27;97021;-75
2023/03/22 05:22:39;;;;;;;0.88;0.60;;;;;;;20.46;45.53;100637.63;5055260;27;96818;-75
2023/03/22 05:25:09;;;;;;;0.90;0.57;;;;;;;20.49;45.52;100628.22;5056931;27;96838;-75
2023/03/22 05:27:37;;;;;;;0.63;0.50;;;;;;;20.46;45.72;100636.75;5038213;27;96704;-75
2023/03/22 05:30:17;;;;;;;0.60;0.50;;;;;;;20.46;45.75;100626.69;5055936;27;97022;-75
2023/03/22 05:32:49;;;;;;;1.10;0.50;;;;;;;20.46;45.62;100634.03;5039546;27;96679;-75
2023/03/22 05:35:17;;;;;;;0.88;0.50;;;;;;;20.45;45.42;100630.47;5051133;27;99113;-75
2023/03/22 05:37:49;;;;;;;1.15;0.60;;;;;;;20.48;45.46;100632.84;5039903;27;96787;-75
2023/03/22 05:40:15;;;;;;;0.90;0.70;;;;;;;20.48;45.70;100630.09;5055342;27;96991;-75
2023/03/22 05:42:44;;;;;;;0.60;0.50;;;;;;;20.50;45.57;100635.38;5053045;27;99256;-75
2023/03/22 05:45:19;;;;;;;0.97;0.70;;;;;;;20.49;45.58;100634.53;5053751;27;99531;-75
2023/03/22 05:47:54;;;;;;;1.02;0.50;;;;;;;20.51;45.94;100634.34;5070750;27;97129;-75
2023/03/22 05:50:22;;;;;;;0.63;0.50;;;;;;;20.50;45.44;100633.50;5056376;27;96981;-75
2023/03/22 05:52:49;;;;;;;1.00;0.70;;;;;;;20.49;45.83;100634.53;5050758;27;98825;-75
2023/03/22 05:55:22;;;;;;;1.05;0.60;;;;;;;20.49;45.49;100628.22;5058362;27;96778;-75
2023/03/22 05:57:55;;;;;;;0.82;0.50;;;;;;;20.50;45.49;100628.03;5057014;27;97027;-76
2023/03/22 06:00:24;;;;;;;0.70;0.50;;;;;;;20.49;45.31;100620.03;5053936;27;96795;-75
2023/03/22 06:03:09;;;;;;;0.73;0.50;;;;;;;20.49;45.75;100620.03;5065108;27;98164;-75
2023/03/22 06:05:41;;;;;;;0.95;0.52;;;;;;;20.49;45.33;100630.94;5055701;27;96876;-75
2023/03/22 06:08:08;;;;;;;0.93;0.50;;;;;;;20.50;45.49;100635.38;5074143;27;96923;-75
2023/03/22 06:10:35;;;;;;;1.00;0.60;;;;;;;20.49;45.54;100628.22;5050226;27;96732;-75
2023/03/22 06:13:01;;;;;;;0.85;0.50;;;;;;;20.50;45.71;100630.78;5047408;27;97814;-75
2023/03/22 06:15:31;;;;;;;1.30;0.40;;;;;;;20.51;45.76;100626.16;5048413;27;98386;-76
2023/03/22 06:18:06;;;;;;;0.85;0.50;;;;;;;20.51;45.29;100628.91;5054111;27;96830;-75
2023/03/22 06:20:40;;;;;;;1.67;0.60;;;;;;;20.52;45.37;100626.00;5050452;27;96909;-76
2023/03/22 06:23:16;;;;;;;0.68;0.40;;;;;;;20.50;45.45;100628.03;5053326;27;96673;-75
2023/03/22 06:25:45;;;;;;;0.85;0.55;;;;;;;20.49;45.33;100631.81;5059060;27;97233;-75
2023/03/22 06:28:11;;;;;;;0.60;0.40;;;;;;;20.49;45.69;100628.22;5071351;27;96683;-75
2023/03/22 06:30:46;;;;;;;1.63;0.40;;;;;;;20.50;45.57;100619.88;5053924;27;96771;-75
2023/03/22 06:33:27;;;;;;;1.00;0.70;;;;;;;20.49;45.64;100626.34;5056683;27;97605;-75
2023/03/22 06:36:00;;;;;;;0.85;0.50;;;;;;;20.49;45.56;100630.94;5038755;27;98822;-75
2023/03/22 06:38:34;;;;;;;0.75;0.45;;;;;;;20.49;45.39;100628.22;5052859;27;96898;-75
2023/03/22 06:41:01;;;;;;;0.40;0.40;;;;;;;20.51;45.55;100623.44;5073661;27;96499;-75
2023/03/22 06:43:28;;;;;;;0.63;0.50;;;;;;;20.51;45.54;100618.84;5034752;27;99005;-75
2023/03/22 06:46:05;;;;;;;0.80;0.60;;;;;;;20.52;45.31;100619.69;5052385;27;100039;-75
2023/03/22 06:48:37;;;;;;;0.77;0.40;;;;;;;20.51;45.32;100615.25;5054187;27;96899;-75
2023/03/22 06:51:08;;;;;;;1.60;0.50;;;;;;;20.51;45.33;100618.84;5051745;27;96705;-75
2023/03/22 06:53:36;;;;;;;0.80;0.50;;;;;;;20.53;45.24;100627.69;5050741;27;99743;-74
2023/03/22 06:56:03;;;;;;;0.95;0.47;;;;;;;20.51;45.18;100624.28;5058476;27;96858;-74
2023/03/22 06:58:40;;;;;;;0.73;0.50;;;;;;;20.51;45.17;100626.16;5051426;27;96638;-74
2023/03/22 07:01:07;;;;;;;1.23;0.50;;;;;;;20.52;45.31;100627.88;5052829;27;96730;-74
2023/03/22 07:03:35;;;;;;;0.47;0.40;;;;;;;20.50;45.57;100630.78;5048177;27;99693;-74
2023/03/22 07:06:08;;;;;;;0.82;0.47;;;;;;;20.51;45.24;100632.47;5050036;27;96730;-74
2023/03/22 07:08:38;;;;;;;1.38;0.50;;;;;;;20.51;45.58;100628.91;5053169;27;96985;-74
2023/03/22 07:11:06;;;;;;;0.85;0.50;;;;;;;20.52;45.31;100625.13;5055491;27;97123;-74
2023/03/22 07:13:34;;;;;;;1.08;0.55;;;;;;;20.53;45.22;100632.28;5065302;27;100037;-74
2023/03/22 07:16:07;;;;;;;1.00;0.50;;;;;;;20.53;45.44;100629.56;5050722;27;98899;-74
2023/03/22 07:18:37;;;;;;;0.60;0.40;;;;;;;20.54;45.42;100626.66;5054354;27;98715;-74
2023/03/22 07:21:05;;;;;;;1.63;0.50;;;;;;;20.53;45.17;100629.56;5045450;27;96789;-74
2023/03/22 07:23:33;;;;;;;0.63;0.50;;;;;;;20.48;45.34;100632.84;5061072;27;97325;-74
2023/03/22 07:26:05;;;;;;;1.75;0.40;;;;;;;20.47;45.52;100625.69;5054124;27;100545;-74
2023/03/22 07:28:34;;;;;;;0.73;0.50;;;;;;;20.50;45.24;100619.88;5055417;27;96674;-74
2023/03/22 07:31:10;;;;;;;1.00;0.65;;;;;;;20.52;45.23;100622.41;5036299;27;97174;-74
2023/03/22 07:33:53;;;;;;;0.80;0.47;;;;;;;20.49;45.21;100620.03;5045280;27;97040;-74
2023/03/22 07:36:24;;;;;;;1.20;0.60;;;;;;;20.46;45.65;100631.31;5054587;27;97660;-74
2023/03/22 07:38:52;;;;;;;1.48;0.55;;;;;;;20.44;45.34;100623.31;5055928;27;96838;-74
2023/03/22 07:41:29;;;;;;;1.13;0.40;;;;;;;20.42;45.31;100625.34;5055039;27;96712;-74
2023/03/22 07:44:19;;;;;;;0.82;0.55;;;;;;;20.41;45.26;100625.53;5058848;27;96855;-74
2023/03/22 07:46:56;;;;;;;0.82;0.50;;;;;;;20.41;45.45;100623.66;5064913;27;97449;-75
2023/03/22 07:49:30;;;;;;;4.68;0.47;;;;;;;20.40;45.70;100635.59;5051137;27;97051;-74
2023/03/22 07:52:03;;;;;;;0.88;0.50;;;;;;;20.39;45.78;100633.91;5051060;27;96926;-74
2023/03/22 07:54:29;;;;;;;1.23;0.50;;;;;;;20.38;45.39;100643.06;5054631;27;98731;-75
2023/03/22 07:57:01;;;;;;;0.88;0.47;;;;;;;20.39;45.40;100635.75;5054436;27;100182;-74
2023/03/22 07:59:30;;;;;;;0.43;0.40;;;;;;;20.39;45.75;100636.63;5055003;27;96796;-74
2023/03/22 08:01:57;;;;;;;0.60;0.40;;;;;;;20.39;45.40;100643.94;5055332;27;97161;-75
2023/03/22 08:04:33;;;;;;;1.70;0.50;;;;;;;20.39;45.49;100643.94;5053607;27;99540;-74
2023/03/22 08:07:08;;;;;;;0.95;0.65;;;;;;;20.39;45.44;100639.34;5055631;27;99868;-75
2023/03/22 08:09:36;;;;;;;1.48;1.00;;;;;;;20.39;45.83;100635.75;5072368;27;96920;-74
2023/03/22 08:12:04;;;;;;;1.30;0.57;;;;;;;20.39;45.51;100635.75;5055887;27;97129;-75
2023/03/22 08:14:31;;;;;;;0.93;0.60;;;;;;;20.40;45.41;100632.03;5052033;27;99587;-74
2023/03/22 08:17:05;;;;;;;1.00;0.50;;;;;;;20.40;45.65;100626.56;5054924;27;100147;-74
2023/03/22 08:19:32;;;;;;;0.82;0.40;;;;;;;20.39;45.40;100624.84;5054471;27;97382;-74
2023/03/22 08:22:00;;;;;;;1.25;0.50;;;;;;;20.39;45.63;100631.16;5070146;27;96838;-74
2023/03/22 08:24:46;;;;;;;1.50;0.55;;;;;;;20.40;45.84;100642.94;5072145;27;98701;-75
2023/03/22 08:27:23;;;;;;;1.95;0.77;;;;;;;20.39;45.72;100635.75;5052128;27;100159;-74
2023/03/22 08:29:50;;;;;;;2.45;0.77;;;;;;;20.40;45.59;100641.06;5054953;27;97279;-74
2023/03/22 08:32:17;;;;;;;1.33;0.50;;;;;;;20.40;45.56;100640.19;5054705;27;96875;-74
2023/03/22 08:34:44;;;;;;;1.27;0.70;;;;;;;20.40;45.59;100653.84;5052160;27;96728;-74
2023/03/22 08:37:11;;;;;;;0.90;0.50;;;;;;;20.41;45.62;100644.63;5055853;27;99041;-74
2023/03/22 08:39:40;;;;;;;0.70;0.50;;;;;;;20.40;45.45;100653.84;5055083;27;97114;-74
2023/03/22 08:42:30;;;;;;;0.90;0.50;;;;;;;20.40;45.44;100642.94;5040366;27;96885;-74
2023/03/22 08:44:57;;;;;;;1.40;0.60;;;;;;;20.40;45.64;100640.19;5047537;27;99804;-74
2023/03/22 08:47:26;;;;;;;0.93;0.60;;;;;;;20.42;45.38;100636.28;5053738;27;100430;-74
2023/03/22 08:49:57;;;;;;;1.00;0.50;;;;;;;20.41;45.37;100633.72;5054213;27;96847;-74
2023/03/22 08:52:38;;;;;;;1.40;0.98;;;;;;;20.41;45.54;100620.94;5056124;27;98841;-74
2023/03/22 08:55:09;;;;;;;1.92;0.60;;;;;;;20.42;45.71;100621.78;5057257;27;99018;-74
2023/03/22 08:57:57;;;;;;;1.00;0.55;;;;;;;20.44;45.29;100625.19;5075192;27;96793;-74
2023/03/22 09:00:33;;;;;;;1.15;0.50;;;;;;;20.47;45.63;100627.56;5046503;27;97060;-74
2023/03/22 09:03:33;;;;;;;1.00;0.57;;;;;;;20.50;45.63;100625.31;5053144;27;96786;-74
2023/03/22 09:06:00;;;;;;;0.80;0.55;;;;;;;20.51;45.46;100613.38;5048073;27;99390;-74
2023/03/22 09:08:33;;;;;;;10.68;0.80;;;;;;;20.52;45.41;100614.22;5050141;27;96972;-74
2023/03/22 09:11:09;;;;;;;0.57;0.45;;;;;;;20.49;45.28;100620.03;5054819;27;96816;-74
2023/03/22 09:13:36;;;;;;;1.02;0.50;;;;;;;20.49;45.14;100620.88;5050541;27;97269;-74
2023/03/22 09:16:04;;;;;;;1.25;0.60;;;;;;;20.49;45.25;100626.34;5044822;27;98702;-74
2023/03/22 09:18:32;;;;;;;1.55;0.70;;;;;;;20.48;45.47;100615.63;5041158;27;100351;-74
2023/03/22 09:21:03;;;;;;;1.13;0.75;;;;;;;20.47;45.41;100613.91;5053291;27;96669;-74
2023/03/22 09:23:37;;;;;;;1.38;0.60;;;;;;;20.51;45.55;100613.38;5047821;27;96785;-74
2023/03/22 09:26:07;;;;;;;1.60;0.63;;;;;;;20.50;45.36;100597.19;5058163;27;97665;-75
2023/03/22 09:28:36;;;;;;;2.90;0.68;;;;;;;20.51;45.57;100599.72;5057525;27;96953;-74
2023/03/22 09:31:08;;;;;;;1.20;0.55;;;;;;;20.48;45.11;100591.91;5033535;27;96889;-75
2023/03/22 09:33:37;;;;;;;1.20;0.52;;;;;;;20.48;45.41;100594.63;5044018;27;96780;-74
2023/03/22 09:36:04;;;;;;;1.65;0.70;;;;;;;20.49;45.58;100603.66;5031282;27;96679;-74
2023/03/22 09:38:32;;;;;;;2.38;0.73;;;;;;;20.48;45.45;100599.25;5055119;27;98534;-74
2023/03/22 09:41:22;;;;;;;0.55;0.40;;;;;;;20.49;45.30;100595.50;5049387;27;96995;-74
2023/03/22 09:43:55;;;;;;;1.15;0.60;;;;;;;20.46;45.01;100596.69;5057661;27;97366;-74
2023/03/22 09:46:31;;;;;;;1.92;0.60;;;;;;;20.45;45.54;100594.16;5057127;27;99557;-74
2023/03/22 09:49:01;;;;;;;1.20;0.55;;;;;;;20.42;45.53;100591.78;5055999;27;97282;-74
2023/03/22 09:51:39;;;;;;;1.25;0.50;;;;;;;20.42;45.51;100599.97;5055347;27;96811;-74
2023/03/22 09:54:31;;;;;;;1.25;0.43;;;;;;;20.41;45.22;100596.38;5054657;27;96775;-74
2023/03/22 09:57:07;;;;;;;1.35;0.52;;;;;;;20.40;45.51;100588.38;5015119;27;99287;-74
2023/03/22 09:59:50;;;;;;;1.58;0.80;;;;;;;20.37;45.53;100584.09;5055155;27;96799;-74
2023/03/22 10:02:38;;;;;;;1.30;0.70;;;;;;;20.37;45.40;100600.47;5055029;27;97032;-74
2023/03/22 10:05:30;;;;;;;1.50;0.70;;;;;;;20.37;45.40;100600.47;5061248;27;97158;-74
2023/03/22 10:08:27;;;;;;;1.00;0.55;;;;;;;20.39;45.30;100605.75;5074411;27;96763;-74
2023/03/22 10:10:53;;;;;;;1.45;0.60;;;;;;;20.38;45.44;100599.44;5056112;27;97302;-74
2023/03/22 10:13:23;;;;;;;2.42;0.82;;;;;;;20.39;45.38;100597.56;5062632;27;97529;-74
2023/03/22 10:15:54;;;;;;;1.02;0.47;;;;;;;20.38;45.51;100598.59;5058457;27;96606;-74
2023/03/22 10:18:25;;;;;;;1.05;0.60;;;;;;;20.38;45.26;100598.59;5075269;27;96907;-75
2023/03/22 10:21:03;;;;;;;1.27;0.68;;;;;;;20.38;45.37;100601.31;5074750;27;97286;-74
2023/03/22 10:23:35;;;;;;;1.85;0.60;;;;;;;20.39;45.37;100594.84;5039828;27;97163;-74
2023/03/22 10:26:03;;;;;;;1.17;0.70;;;;;;;20.39;45.56;100595.72;5074042;27;96982;-74
2023/03/22 10:28:37;;;;;;;2.40;0.57;;;;;;;20.40;45.73;100596.56;5074350;27;96851;-75
2023/03/22 10:31:05;;;;;;;1.67;0.70;;;;;;;20.39;45.39;100587.53;5054548;27;96871;-74
2023/03/22 10:33:50;;;;;;;0.75;0.50;;;;;;;20.39;45.34;100582.06;5049956;27;97331;-74
2023/03/22 10:36:21;;;;;;;1.90;1.07;;;;;;;20.42;45.26;100586.31;5075515;27;97103;-74
2023/03/22 10:38:51;;;;;;;2.67;0.75;;;;;;;20.41;45.08;100592.81;5074281;27;96898;-74
2023/03/22 10:41:21;;;;;;;0.95;0.60;;;;;;;20.41;45.50;100588.19;5067322;27;96697;-74
2023/03/22 10:43:52;;;;;;;0.60;0.40;;;;;;;20.40;45.31;100599.28;5045507;27;96746;-74
2023/03/22 10:46:23;;;;;;;1.23;0.50;;;;;;;20.41;45.18;100604.56;5066184;27;96936;-74
2023/03/22 10:48:52;;;;;;;1.08;0.70;;;;;;;20.40;45.14;100605.59;5069943;27;97470;-74
2023/03/22 10:51:22;;;;;;;1.92;0.60;;;;;;;20.40;45.26;100607.47;5054471;27;97598;-75
2023/03/22 10:53:52;;;;;;;2.78;0.85;;;;;;;20.41;45.06;100603.72;5020568;27;96875;-74
2023/03/22 10:56:20;;;;;;;1.60;0.70;;;;;;;20.41;45.51;100599.09;5055963;27;97163;-74
2023/03/22 10:58:48;;;;;;;1.42;0.60;;;;;;;20.40;45.18;100599.28;5061652;27;96929;-74
2023/03/22 11:01:31;;;;;;;1.20;0.50;;;;;;;20.39;45.21;100612.09;5067969;27;98082;-75
2023/03/22 11:04:06;;;;;;;1.20;0.40;;;;;;;20.38;45.17;100612.22;5065797;27;97194;-74
2023/03/22 11:06:38;;;;;;;1.23;0.63;;;;;;;20.39;45.21;100611.19;5070464;27;96687;-74
2023/03/22 11:09:20;;;;;;;1.17;0.60;;;;;;;20.39;45.49;100613.94;5055091;27;97906;-74
2023/03/22 11:11:53;;;;;;;1.88;0.70;;;;;;;20.39;45.23;100613.94;5061734;27;97509;-75
2023/03/22 11:14:28;;;;;;;1.88;0.60;;;;;;;20.41;45.25;100617.34;5072404;27;97230;-74
2023/03/22 11:16:59;;;;;;;1.10;0.52;;;;;;;20.41;45.42;100612.75;5053233;27;96601;-74
2023/03/22 11:19:32;;;;;;;1.85;0.65;;;;;;;20.41;45.46;100610.03;5054313;27;97423;-74
2023/03/22 11:22:01;;;;;;;1.23;0.60;;;;;;;20.43;45.35;100620.75;5073652;27;97414;-74
2023/03/22 11:24:31;;;;;;;1.60;0.50;;;;;;;20.46;45.09;100617.66;5053953;27;98131;-74
2023/03/22 11:27:05;;;;;;;1.02;0.60;;;;;;;20.46;45.17;100604.03;5055021;27;96930;-74
2023/03/22 11:29:44;;;;;;;1.17;0.60;;;;;;;20.45;45.02;100608.63;5071668;27;98189;-74
2023/03/22 11:32:25;;;;;;;1.90;0.50;;;;;;;20.48;45.06;100608.28;5053757;27;98334;-75
2023/03/22 11:35:13;;;;;;;1.10;0.60;;;;;;;20.48;45.18;100602.81;5050037;27;97536;-74
2023/03/22 11:37:45;;;;;;;0.95;0.65;;;;;;;20.51;44.95;100612.53;5065447;27;96908;-74
2023/03/22 11:40:24;;;;;;;1.58;0.50;;;;;;;20.54;45.23;100606.72;5065859;27;98008;-74
2023/03/22 11:43:00;;;;;;;1.23;0.43;;;;;;;20.54;45.19;100609.44;5066449;27;96983;-75
2023/03/22 11:45:34;;;;;;;1.95;0.68;;;;;;;20.52;45.17;100603.31;5064923;27;97259;-74
2023/03/22 11:48:13;;;;;;;1.17;0.60;;;;;;;20.52;45.08;100612.34;5063256;27;96743;-74
2023/03/22 11:50:43;;;;;;;1.58;0.77;;;;;;;20.55;45.02;100620.19;5051539;27;96898;-74
2023/03/22 11:53:20;;;;;;;1.48;0.50;;;;;;;20.56;45.21;100610.97;5064226;27;96708;-74